Time;durP1;ratioP1;P1;durP2;ratioP2;P2;SDS_P1;SDS_P2;PMS_P1;PMS_P2;Temp;Humidity;BMP_temperature;BMP_pressure;BME280_temperature;BME280_humidity;BME280_pressure;Samples;Min_cycle;Max_cycle;Signal;HPM_P1;HPM_P2
2021/10/17 00:00:54;;;;;;;;;22.75;20.75;;;;;14.02;78.72;101096.03;146603;595;46017;-73
2021/10/17 00:03:28;;;;;;;;;20.00;19.00;;;;;13.98;79.00;101090.59;146603;616;46020;-75
2021/10/17 00:06:02;;;;;;;;;21.25;18.00;;;;;13.95;78.89;101095.66;146603;573;46016;-71
2021/10/17 00:08:37;;;;;;;;;19.25;19.00;;;;;13.95;78.88;101093.06;146608;581;45022;-73
2021/10/17 00:11:10;;;;;;;;;16.00;15.50;;;;;13.93;78.78;101098.22;146604;602;46012;-73
2021/10/17 00:13:44;;;;;;;;;20.75;18.00;;;;;13.95;78.47;101090.47;146604;592;46020;-74
2021/10/17 00:16:18;;;;;;;;;16.50;13.00;;;;;13.94;78.71;101100.00;146601;634;46017;-73
2021/10/17 00:18:52;;;;;;;;;16.50;16.50;;;;;13.93;78.38;101094.72;146604;619;47012;-73
2021/10/17 00:21:26;;;;;;;;;18.25;17.50;;;;;13.93;78.79;101095.63;146603;598;46017;-75
2021/10/17 00:24:00;;;;;;;;;18.25;15.75;;;;;13.89;78.71;101083.25;146605;567;46021;-74
2021/10/17 00:26:34;;;;;;;;;19.25;16.00;;;;;13.92;79.51;101095.53;146605;578;46016;-76
2021/10/17 00:29:08;;;;;;;;;19.75;17.00;;;;;13.90;79.06;101089.38;146606;572;46020;-74
2021/10/17 00:31:42;;;;;;;;;17.25;14.50;;;;;13.85;78.98;101087.44;146603;606;46017;-74
2021/10/17 00:34:17;;;;;;;;;15.50;13.50;;;;;13.83;78.93;101081.31;146605;679;46020;-74
2021/10/17 00:36:51;;;;;;;;;18.25;13.50;;;;;13.84;79.37;101082.19;146606;595;46012;-76
2021/10/17 00:39:25;;;;;;;;;14.00;13.50;;;;;12.74;79.00;100882.84;146602;583;47010;-75
2021/10/17 00:42:04;;;;;;;;;15.50;13.00;;;;;13.85;78.64;101082.25;146600;581;46016;-78
2021/10/17 00:44:41;;;;;;;;;15.50;13.00;;;;;13.89;78.65;101077.16;146606;576;47010;-77
2021/10/17 00:47:14;;;;;;;;;15.50;14.00;;;;;13.94;79.24;101075.66;146605;680;46012;-79
2021/10/17 00:49:48;;;;;;;;;16.00;12.50;;;;;13.92;78.66;101067.75;146607;577;45022;-80
2021/10/17 00:52:23;;;;;;;;;12.00;12.00;;;;;12.77;78.52;100869.94;146600;612;46017;-77
2021/10/17 00:54:57;;;;;;;;;11.75;11.50;;;;;13.95;78.39;101072.22;146604;609;46020;-76
2021/10/17 00:57:31;;;;;;;;;12.75;11.50;;;;;13.88;78.67;101057.13;146604;730;46016;-81
2021/10/17 01:00:05;;;;;;;;;14.00;11.75;;;;;13.92;78.34;101075.56;146608;676;46021;-74
2021/10/17 01:02:39;;;;;;;;;12.50;11.00;;;;;13.91;78.39;101076.41;146606;569;46012;-76
2021/10/17 01:05:16;;;;;;;;;9.50;9.50;;;;;13.91;78.30;101075.53;146604;591;46020;-76
2021/10/17 01:07:51;;;;;;;;;14.25;14.00;;;;;13.90;78.64;101068.53;146603;572;46017;-76
2021/10/17 01:10:25;;;;;;;;;15.00;13.25;;;;;13.92;78.25;101072.97;146606;570;46020;-73
2021/10/17 01:12:59;;;;;;;;;13.00;12.75;;;;;13.94;78.40;101073.03;146600;604;46016;-73
2021/10/17 01:15:33;;;;;;;;;14.25;13.75;;;;;13.94;78.08;101075.66;146605;582;46021;-72
2021/10/17 01:18:07;;;;;;;;;9.00;9.00;;;;;13.96;78.17;101079.22;146604;600;46016;-72
2021/10/17 01:20:41;;;;;;;;;13.75;12.25;;;;;13.99;78.04;101075.03;146605;590;46020;-73
2021/10/17 01:23:16;;;;;;;;;14.00;11.50;;;;;13.99;77.69;101067.22;146602;571;46017;-72
2021/10/17 01:25:51;;;;;;;;;14.50;14.00;;;;;13.96;77.64;101061.88;146605;586;46020;-72
2021/10/17 01:28:26;;;;;;;;;11.75;10.25;;;;;13.94;77.40;101060.91;146602;619;46016;-72
2021/10/17 01:31:00;;;;;;;;;10.00;9.75;;;;;13.93;78.09;101059.12;146605;700;46021;-73
2021/10/17 01:33:34;;;;;;;;;13.25;13.25;;;;;13.91;77.54;101063.38;146601;603;46016;-71
2021/10/17 01:36:08;;;;;;;;;12.75;12.25;;;;;13.88;77.45;101060.63;146606;643;46020;-71
2021/10/17 01:38:42;;;;;;;;;17.25;14.50;;;;;13.85;78.10;101061.38;146602;587;46016;-72
2021/10/17 01:41:16;;;;;;;;;10.00;9.00;;;;;13.82;77.46;101056.03;146606;603;46020;-72
2021/10/17 01:43:50;;;;;;;;;11.50;10.00;;;;;13.77;78.00;101056.66;146601;578;46017;-72
2021/10/17 01:46:24;;;;;;;;;9.33;8.33;;;;;13.75;77.46;101050.50;146603;566;46028;-73
2021/10/17 01:49:12;;;;;;;;;13.00;11.25;;;;;13.76;77.74;101052.28;146603;600;46016;-73
2021/10/17 01:51:46;;;;;;;;;11.75;9.25;;;;;13.72;77.78;101053.87;146598;588;48010;-71
2021/10/17 01:54:20;;;;;;;;;12.00;11.50;;;;;13.70;77.40;101055.50;146604;602;46016;-72
2021/10/17 01:56:54;;;;;;;;;11.75;11.00;;;;;13.67;77.72;101047.56;146604;631;45050;-73
2021/10/17 01:59:28;;;;;;;;;11.00;11.00;;;;;13.62;77.74;101057.78;146602;599;46017;-72
2021/10/17 02:02:02;;;;;;;;;13.50;10.25;;;;;13.58;78.10;101053.28;146608;642;46020;-71
2021/10/17 02:04:36;;;;;;;;;11.00;9.75;;;;;13.62;78.57;101062.12;146604;647;46016;-74
2021/10/17 02:07:10;;;;;;;;;8.50;7.50;;;;;13.71;78.08;101059.03;146607;655;46021;-74
2021/10/17 02:09:44;;;;;;;;;8.67;7.67;;;;;13.81;77.26;101056.88;146605;651;46012;-70
2021/10/17 02:12:27;;;;;;;;;7.00;6.33;;;;;13.96;76.66;101071.41;146608;637;46010;-70
2021/10/17 02:15:04;;;;;;;;;6.50;6.50;;;;;14.09;75.83;101068.50;146603;661;47013;-69
2021/10/17 02:17:40;;;;;;;;;7.67;7.33;;;;;14.19;75.59;101074.97;146609;583;46010;-70
2021/10/17 02:20:15;;;;;;;;;8.25;8.00;;;;;14.26;75.50;101072.69;146604;631;47012;-71
2021/10/17 02:22:49;;;;;;;;;10.50;8.75;;;;;14.35;75.32;101076.50;146607;647;46020;-72
2021/10/17 02:25:23;;;;;;;;;9.33;9.00;;;;;14.40;75.10;101075.88;146606;570;47012;-70
2021/10/17 02:27:57;;;;;;;;;9.00;8.00;;;;;14.42;75.33;101075.91;146606;703;47012;-71
2021/10/17 02:30:31;;;;;;;;;10.50;8.50;;;;;14.42;75.16;101079.41;146603;580;46016;-72
2021/10/17 02:33:06;;;;;;;;;6.33;6.33;;;;;14.41;75.22;101068.94;146608;598;46020;-72
2021/10/17 02:35:40;;;;;;;;;8.00;8.00;;;;;14.41;75.51;101075.03;146601;600;46016;-73
2021/10/17 02:38:14;;;;;;;;;9.50;8.00;;;;;14.38;75.34;101074.03;146606;693;46010;-72
2021/10/17 02:40:48;;;;;;;;;11.00;9.67;;;;;14.35;75.41;101073.91;146606;590;46016;-72
2021/10/17 02:43:22;;;;;;;;;9.50;9.50;;;;;14.31;75.98;101079.00;146606;601;46021;-71
2021/10/17 02:45:55;;;;;;;;;11.75;9.50;;;;;14.31;76.13;101086.81;146605;603;46017;-71
2021/10/17 02:48:30;;;;;;;;;13.25;10.50;;;;;14.28;76.13;101091.91;146605;589;45020;-71
2021/10/17 02:51:03;;;;;;;;;12.75;11.00;;;;;14.27;77.24;101084.91;146604;679;46017;-70
2021/10/17 02:53:38;;;;;;;;;11.00;10.50;;;;;14.26;77.23;101096.16;146608;613;46020;-71
2021/10/17 02:56:12;;;;;;;;;13.00;11.50;;;;;14.24;77.75;101094.34;146604;641;46016;-71
2021/10/17 02:58:46;;;;;;;;;13.00;11.00;;;;;14.27;76.73;101095.34;146607;569;46020;-72
2021/10/17 03:01:24;;;;;;;;;10.33;10.33;;;;;14.31;76.37;101102.47;146606;577;46012;-74
2021/10/17 03:03:58;;;;;;;;;11.00;9.00;;;;;14.36;75.84;101102.69;146606;670;46020;-71
2021/10/17 03:06:33;;;;;;;;;10.75;9.00;;;;;14.40;75.58;101106.28;146603;644;46017;-72
2021/10/17 03:09:10;;;;;;;;;9.00;9.00;;;;;14.43;75.31;101109.91;146607;587;46020;-71
2021/10/17 03:11:44;;;;;;;;;7.33;7.00;;;;;14.44;74.73;101118.63;146604;571;46017;-72
2021/10/17 03:14:19;;;;;;;;;9.67;7.00;;;;;14.45;74.68;101126.50;146606;600;46021;-72
2021/10/17 03:16:59;;;;;;;;;10.67;7.33;;;;;14.47;74.69;101117.03;146606;591;46016;-71
2021/10/17 03:19:33;;;;;;;;;6.33;6.33;;;;;14.49;74.96;101115.41;146606;619;46020;-70
2021/10/17 03:22:07;;;;;;;;;7.75;6.75;;;;;14.47;74.61;101122.25;146604;577;46016;-71
2021/10/17 03:24:41;;;;;;;;;6.75;5.75;;;;;14.45;74.85;101125.63;146608;587;46020;-71
2021/10/17 03:27:16;;;;;;;;;6.50;6.50;;;;;14.44;74.73;101123.84;146603;625;46017;-71
2021/10/17 03:29:53;;;;;;;;;8.00;6.33;;;;;14.42;75.37;101126.38;146605;595;47010;-71
2021/10/17 03:33:00;;;;;;;;;7.00;7.00;;;;;14.38;74.99;101124.47;146604;616;46016;-72
2021/10/17 03:35:34;;;;;;;;;11.33;9.33;;;;;14.41;75.33;101118.50;146606;650;46020;-72
2021/10/17 03:38:08;;;;;;;;;15.75;12.25;;;;;14.41;75.73;101129.81;146601;684;47012;-72
2021/10/17 03:40:42;;;;;;;;;13.00;9.75;;;;;14.41;76.24;101128.94;146607;627;45020;-72
2021/10/17 03:43:16;;;;;;;;;13.25;12.50;;;;;14.37;76.61;101132.25;146603;673;46017;-75
2021/10/17 03:45:50;;;;;;;;;15.25;13.50;;;;;14.35;76.38;101134.78;146603;627;46020;-75
2021/10/17 03:48:23;;;;;;;;;17.00;13.50;;;;;14.33;75.91;101132.13;146601;605;46016;-77
2021/10/17 03:50:57;;;;;;;;;16.25;13.75;;;;;14.33;75.97;101133.84;146607;617;46021;-74
2021/10/17 03:53:31;;;;;;;;;12.75;11.50;;;;;14.33;75.69;101137.34;146603;698;46016;-74
2021/10/17 03:56:05;;;;;;;;;16.00;13.50;;;;;14.34;75.96;101135.63;146607;630;46020;-71
2021/10/17 03:58:39;;;;;;;;;13.00;11.75;;;;;14.32;75.82;101138.16;146603;605;46024;-70
2021/10/17 04:01:13;;;;;;;;;14.75;12.00;;;;;14.35;75.46;101140.00;146604;643;47012;-76
2021/10/17 04:03:47;;;;;;;;;16.00;12.00;;;;;14.36;75.51;101138.28;146605;584;46017;-71
2021/10/17 04:06:21;;;;;;;;;15.75;12.50;;;;;14.35;75.59;101133.91;146602;597;47012;-81
2021/10/17 04:08:55;;;;;;;;;13.25;11.00;;;;;14.34;75.21;101135.63;146603;679;47913;-71
2021/10/17 04:11:29;;;;;;;;;13.25;12.00;;;;;14.35;75.33;101142.59;146608;579;46020;-71
2021/10/17 04:14:03;;;;;;;;;12.75;11.50;;;;;14.31;75.18;101146.81;146602;576;47012;-71
2021/10/17 04:16:37;;;;;;;;;12.00;10.25;;;;;14.25;75.16;101143.06;146607;584;47008;-71
2021/10/17 04:19:11;;;;;;;;;13.50;9.75;;;;;14.16;75.23;101138.31;146602;585;46016;-72
2021/10/17 04:21:45;;;;;;;;;15.25;14.50;;;;;14.07;75.21;101148.34;146604;590;46020;-73
2021/10/17 04:24:19;;;;;;;;;13.50;10.50;;;;;13.98;75.66;101151.44;146599;580;46016;-73
2021/10/17 04:26:53;;;;;;;;;11.00;10.00;;;;;13.89;75.74;101143.22;146608;697;46010;-71
2021/10/17 04:29:27;;;;;;;;;11.75;11.00;;;;;13.81;76.25;101142.00;146605;564;46012;-70
2021/10/17 04:32:01;;;;;;;;;14.00;12.75;;;;;13.71;76.30;101150.25;146605;584;47012;-70
2021/10/17 04:34:35;;;;;;;;;14.75;14.25;;;;;13.66;76.76;101159.56;146603;599;46013;-70
2021/10/17 04:37:11;;;;;;;;;12.75;11.75;;;;;13.62;76.90;101156.81;146605;700;46021;-69
2021/10/17 04:39:45;;;;;;;;;13.25;12.50;;;;;13.57;77.30;101163.50;146603;653;46016;-69
2021/10/17 04:42:20;;;;;;;;;13.25;11.50;;;;;13.51;77.10;101155.41;146607;569;46021;-68
2021/10/17 04:44:53;;;;;;;;;15.00;13.50;;;;;13.52;77.87;101156.28;146604;706;46016;-68
2021/10/17 04:47:28;;;;;;;;;12.50;12.50;;;;;13.49;77.38;101158.75;146605;654;46020;-70
2021/10/17 04:50:12;;;;;;;;;17.50;13.00;;;;;13.47;78.04;101163.91;146604;564;45913;-70
2021/10/17 04:52:47;;;;;;;;;14.25;11.50;;;;;13.46;78.02;101164.75;146608;564;45023;-69
2021/10/17 04:55:21;;;;;;;;;17.00;13.00;;;;;13.48;78.10;101175.22;146604;582;46016;-69
2021/10/17 04:58:05;;;;;;;;;13.00;11.50;;;;;13.51;78.27;101180.56;146605;616;46020;-70
2021/10/17 05:00:39;;;;;;;;;14.50;12.00;;;;;13.56;78.04;101186.91;146606;627;45911;-69
2021/10/17 05:03:13;;;;;;;;;13.75;11.75;;;;;13.65;78.14;101182.13;146603;570;46020;-75
2021/10/17 05:05:46;;;;;;;;;13.00;11.25;;;;;13.75;77.93;101181.69;146604;604;46016;-73
2021/10/17 05:08:20;;;;;;;;;16.25;15.00;;;;;13.82;77.64;101188.09;146607;577;46030;-75
2021/10/17 05:10:54;;;;;;;;;14.75;13.00;;;;;13.92;77.29;101187.66;146607;574;46012;-76
2021/10/17 05:13:32;;;;;;;;;16.00;16.00;;;;;14.04;76.92;101184.72;146607;571;46021;-78
2021/10/17 05:16:06;;;;;;;;;23.00;18.50;;;;;14.44;77.12;101189.09;146608;589;45911;-77
2021/10/17 05:18:40;;;;;;;;;22.50;19.50;;;;;15.27;76.21;101193.44;146606;571;45021;-78
2021/10/17 05:21:16;;;;;;;;;21.25;19.50;;;;;16.26;73.73;101195.41;146605;727;47012;-77
2021/10/17 05:23:50;;;;;;;;;15.50;13.50;;;;;17.22;70.94;101196.06;146610;629;45020;-85
2021/10/17 05:26:24;;;;;;;;;26.75;24.00;;;;;18.07;67.96;101198.63;146603;601;46016;-84
2021/10/17 05:28:58;;;;;;;;;19.50;18.00;;;;;18.44;65.89;101201.44;146604;597;46021;-84
2021/10/17 05:31:32;;;;;;;;;9.00;8.33;;;;;18.46;64.76;101198.84;146608;575;46020;-91
2021/10/17 05:34:06;;;;;;;;;18.50;17.25;;;;;18.32;64.48;101195.84;146608;623;46021;-89
2021/10/17 05:36:40;;;;;;;;;30.75;25.50;;;;;18.04;64.70;101203.78;146602;616;46035;-88
2021/10/17 05:39:14;;;;;;;;;10.75;9.75;;;;;17.68;65.86;101200.09;146606;665;46026;-90
2021/10/17 05:41:47;;;;;;;;;7.00;6.00;;;;;17.38;66.39;101209.66;146601;564;46017;-80
2021/10/17 05:44:22;;;;;;;;;9.00;8.00;;;;;17.09;66.61;101202.66;146609;608;46020;-81
2021/10/17 05:46:55;;;;;;;;;9.50;8.50;;;;;16.82;67.57;101213.13;146604;615;46018;-81
2021/10/17 05:49:29;;;;;;;;;10.00;10.00;;;;;16.57;68.39;101213.06;146607;590;46010;-80
2021/10/17 05:52:03;;;;;;;;;17.50;14.00;;;;;16.36;69.26;101211.50;146605;708;46016;-82
2021/10/17 05:54:37;;;;;;;;;14.75;10.75;;;;;16.22;70.42;101209.22;146606;569;46019;-82
2021/10/17 05:57:11;;;;;;;;;12.75;12.75;;;;;16.07;70.21;101213.03;146601;564;47012;-81
2021/10/17 05:59:50;;;;;;;;;11.00;10.33;;;;;15.96;70.28;101213.50;146601;694;47012;-81
2021/10/17 06:02:24;;;;;;;;;15.25;14.25;;;;;15.85;70.60;101216.59;146604;578;46012;-82
2021/10/17 06:04:58;;;;;;;;;14.75;11.25;;;;;15.82;71.20;101218.22;146606;557;46021;-80
2021/10/17 06:07:32;;;;;;;;;15.75;12.50;;;;;15.80;71.57;101233.84;146605;590;46012;-81
2021/10/17 06:10:09;;;;;;;;;10.67;9.00;;;;;15.79;71.03;101239.91;146605;601;46907;-81
2021/10/17 06:12:44;;;;;;;;;10.00;8.00;;;;;15.80;70.38;101244.31;146603;656;46016;-81
2021/10/17 06:15:18;;;;;;;;;13.00;9.33;;;;;15.82;71.25;101260.03;146604;575;46020;-81
2021/10/17 06:17:52;;;;;;;;;14.00;11.00;;;;;15.82;70.86;101260.94;146603;572;46017;-81
2021/10/17 06:20:26;;;;;;;;;12.75;12.75;;;;;15.82;71.00;101263.53;146606;574;46010;-80
2021/10/17 06:22:59;;;;;;;;;14.75;13.75;;;;;15.80;71.02;101260.00;146603;624;46016;-80
2021/10/17 06:25:33;;;;;;;;;15.00;12.50;;;;;15.81;71.15;101268.72;146604;566;46021;-80
2021/10/17 06:28:07;;;;;;;;;13.00;12.25;;;;;15.79;71.47;101268.66;146602;631;46016;-80
2021/10/17 06:30:41;;;;;;;;;12.25;12.00;;;;;15.79;71.23;101271.28;146608;677;46020;-82
2021/10/17 06:33:15;;;;;;;;;18.00;14.75;;;;;15.81;71.62;101274.84;146602;587;47018;-81
2021/10/17 06:35:49;;;;;;;;;14.75;12.75;;;;;15.82;71.58;101270.50;146605;633;46012;-81
2021/10/17 06:38:23;;;;;;;;;13.50;13.50;;;;;15.87;71.79;101280.31;146606;611;46016;-81
2021/10/17 06:40:57;;;;;;;;;17.50;16.00;;;;;15.94;72.12;101279.72;146606;653;46021;-81
2021/10/17 06:43:31;;;;;;;;;19.75;17.50;;;;;16.03;71.85;101279.19;146605;647;45911;-82
2021/10/17 06:46:05;;;;;;;;;19.75;16.75;;;;;16.10;72.20;101278.56;146609;565;45020;-81
2021/10/17 06:48:38;;;;;;;;;15.50;14.50;;;;;16.21;72.18;101296.41;146606;579;45912;-82
2021/10/17 06:51:12;;;;;;;;;15.25;14.00;;;;;16.25;72.19;101287.84;146608;648;46020;-81
2021/10/17 06:53:46;;;;;;;;;24.50;21.50;;;;;16.33;72.55;101296.88;146605;719;46016;-81
2021/10/17 06:56:20;;;;;;;;;17.75;16.75;;;;;16.37;71.67;101294.41;146608;596;46012;-81
2021/10/17 06:58:54;;;;;;;;;21.50;17.75;;;;;16.40;71.36;101297.13;146608;587;46012;-81
2021/10/17 07:01:28;;;;;;;;;17.25;17.25;;;;;16.45;71.28;101299.03;146608;669;46021;-81
2021/10/17 07:04:02;;;;;;;;;20.00;18.25;;;;;16.49;71.42;101296.59;146603;588;46016;-81
2021/10/17 07:06:36;;;;;;;;;21.25;18.50;;;;;16.57;71.07;101302.09;146603;683;47012;-81
2021/10/17 07:09:10;;;;;;;;;15.75;14.75;;;;;16.62;70.58;101293.56;146600;567;46016;-81
2021/10/17 07:11:44;;;;;;;;;19.00;16.00;;;;;16.71;70.62;101299.97;146606;616;46021;-82
2021/10/17 07:14:17;;;;;;;;;16.50;15.00;;;;;16.77;70.46;101290.63;146603;580;46016;-81
2021/10/17 07:16:51;;;;;;;;;17.00;15.75;;;;;16.83;70.30;101290.84;146610;717;46011;-81
2021/10/17 07:19:25;;;;;;;;;16.50;12.75;;;;;16.91;69.85;101296.34;146600;595;46016;-80
2021/10/17 07:21:59;;;;;;;;;20.00;18.25;;;;;16.98;68.99;101298.34;146607;586;46020;-82
2021/10/17 07:24:33;;;;;;;;;19.00;16.75;;;;;17.00;68.72;101303.63;146603;686;47013;-81
2021/10/17 07:27:07;;;;;;;;;21.25;16.00;;;;;16.99;68.81;101305.38;146605;584;46020;-81
2021/10/17 07:29:41;;;;;;;;;21.75;18.50;;;;;16.98;69.40;101306.22;146602;565;46033;-82
2021/10/17 07:32:15;;;;;;;;;15.25;15.25;;;;;16.98;69.47;101307.94;146605;572;46020;-80
2021/10/17 07:34:49;;;;;;;;;23.25;20.25;;;;;16.97;69.70;101306.16;146605;594;46016;-80
2021/10/17 07:37:23;;;;;;;;;20.50;19.75;;;;;17.00;68.52;101312.38;146603;637;46020;-80
2021/10/17 07:39:57;;;;;;;;;14.75;12.50;;;;;17.01;67.89;101308.06;146602;650;46017;-80
2021/10/17 07:42:31;;;;;;;;;16.50;13.00;;;;;16.98;67.69;101313.19;146608;563;46020;-82
2021/10/17 07:45:05;;;;;;;;;13.50;11.50;;;;;16.94;67.48;101314.78;146603;571;46016;-80
2021/10/17 07:47:40;;;;;;;;;12.75;12.00;;;;;16.93;68.25;101320.00;146608;628;46021;-81
2021/10/17 07:50:14;;;;;;;;;12.00;11.25;;;;;16.94;68.03;101321.75;146604;605;47012;-81
2021/10/17 07:52:48;;;;;;;;;12.00;9.50;;;;;16.95;67.38;101324.44;146607;575;46027;-81
2021/10/17 07:55:22;;;;;;;;;9.33;8.33;;;;;16.98;67.24;101324.56;146605;573;45908;-80
2021/10/17 07:57:59;;;;;;;;;9.00;7.33;;;;;17.01;67.47;101331.63;146606;578;47010;-80
2021/10/17 08:00:33;;;;;;;;;13.00;11.00;;;;;17.01;66.41;101332.53;146608;587;46911;-81
2021/10/17 08:03:10;;;;;;;;;7.33;7.33;;;;;17.01;66.96;101334.25;146607;595;46020;-82
2021/10/17 08:05:44;;;;;;;;;10.33;9.67;;;;;16.98;67.60;101329.78;146602;608;47016;-82
2021/10/17 08:08:22;;;;;;;;;9.67;8.67;;;;;17.02;67.58;101336.91;146609;648;46010;-82
2021/10/17 08:10:56;;;;;;;;;7.33;7.33;;;;;17.04;68.14;101334.34;146607;597;46012;-82
2021/10/17 08:13:30;;;;;;;;;10.00;8.00;;;;;17.07;67.27;101342.28;146608;613;46020;-81
2021/10/17 08:16:04;;;;;;;;;8.00;8.00;;;;;17.11;66.94;101343.31;146606;606;46016;-82
2021/10/17 08:18:39;;;;;;;;;9.75;9.00;;;;;17.14;66.93;101348.66;146607;592;46020;-81
2021/10/17 08:21:13;;;;;;;;;12.67;12.33;;;;;17.18;67.52;101346.19;146604;580;46016;-83
2021/10/17 08:23:48;;;;;;;;;11.33;9.33;;;;;17.22;66.64;101342.81;146607;594;46021;-83
2021/10/17 08:26:22;;;;;;;;;13.00;11.33;;;;;17.28;65.67;101344.78;146603;569;46016;-85
2021/10/17 08:28:56;;;;;;;;;10.67;9.00;;;;;17.34;66.21;101350.22;146610;640;46022;-80
2021/10/17 08:31:32;;;;;;;;;7.33;7.33;;;;;17.40;65.11;101342.56;146606;564;46017;-81
2021/10/17 08:34:06;;;;;;;;;11.00;10.67;;;;;17.46;65.49;101347.12;146609;609;45021;-83
2021/10/17 08:36:40;;;;;;;;;10.33;8.67;;;;;17.51;65.14;101351.69;146605;620;46016;-81
2021/10/17 08:39:14;;;;;;;;;7.00;7.00;;;;;17.57;64.92;101352.72;146604;569;46021;-82
2021/10/17 08:41:50;;;;;;;;;10.33;8.00;;;;;17.60;63.95;101347.56;146601;603;47012;-81
2021/10/17 08:44:24;;;;;;;;;7.00;7.00;;;;;17.65;64.49;101353.84;146607;622;46020;-81
2021/10/17 08:46:58;;;;;;;;;7.67;6.33;;;;;17.72;64.96;101354.09;146607;574;47012;-81
2021/10/17 08:49:32;;;;;;;;;10.33;9.00;;;;;17.81;64.32;101352.66;146607;589;46020;-82
2021/10/17 08:52:10;;;;;;;;;7.33;7.33;;;;;17.92;64.67;101352.16;146604;573;46016;-82
2021/10/17 08:54:47;;;;;;;;;12.00;10.00;;;;;18.03;63.70;101356.84;146607;590;47010;-80
2021/10/17 08:57:22;;;;;;;;;12.67;12.00;;;;;18.16;64.48;101352.03;146606;616;46012;-82
2021/10/17 08:59:57;;;;;;;;;9.33;9.00;;;;;18.28;62.69;101359.34;146606;645;46020;-81
2021/10/17 09:02:31;;;;;;;;;8.67;7.00;;;;;18.36;62.42;101364.84;146606;595;46912;-82
2021/10/17 09:05:08;;;;;;;;;9.33;8.67;;;;;18.39;62.31;101360.56;146608;597;46012;-82
2021/10/17 09:07:42;;;;;;;;;9.33;8.67;;;;;18.46;62.16;101356.38;146604;583;46017;-80
2021/10/17 09:10:20;;;;;;;;;7.00;6.67;;;;;18.55;62.12;101353.16;146604;563;47021;-80
2021/10/17 09:12:54;;;;;;;;;8.33;6.33;;;;;18.63;62.24;101351.63;146607;597;46034;-80
2021/10/17 09:15:35;;;;;;;;;9.00;7.33;;;;;18.73;62.27;101356.34;146607;587;46907;-79
2021/10/17 09:18:38;;;;;;;;;6.00;6.00;;;;;17.62;62.86;101131.75;146603;570;46016;-82
2021/10/17 09:21:12;;;;;;;;;5.00;5.00;;;;;19.04;61.58;101357.19;146608;682;46010;-80
2021/10/17 09:23:47;;;;;;;;;5.67;5.67;;;;;19.16;61.92;101349.63;146607;618;46016;-75
2021/10/17 09:26:21;;;;;;;;;8.33;7.00;;;;;19.32;62.10;101349.16;146608;575;45020;-74
2021/10/17 09:28:56;;;;;;;;;6.00;6.00;;;;;19.49;63.17;101352.19;146607;577;46012;-74
2021/10/17 09:31:30;;;;;;;;;7.33;6.33;;;;;19.66;61.73;101352.66;146608;565;46010;-74
2021/10/17 09:34:04;;;;;;;;;5.33;4.33;;;;;19.78;60.04;101349.41;146605;593;45911;-75
2021/10/17 09:36:38;;;;;;;;;6.33;6.33;;;;;19.89;61.16;101352.31;146607;591;47012;-74
2021/10/17 09:39:17;;;;;;;;;6.67;5.67;;;;;20.02;60.32;101354.34;146605;564;46017;-73
2021/10/17 09:41:57;;;;;;;;;6.00;4.67;;;;;20.13;60.39;101352.88;146605;674;46012;-73
2021/10/17 09:44:41;;;;;;;;;7.00;6.00;;;;;20.22;60.38;101342.53;146605;585;46016;-73
2021/10/17 09:47:15;;;;;;;;;7.67;6.33;;;;;20.32;58.75;101350.62;146606;583;46019;-73
2021/10/17 09:49:52;;;;;;;;;17.25;16.00;;;;;19.53;58.95;101205.84;146601;617;47012;-75
2021/10/17 09:52:26;;;;;;;;;9.00;7.33;;;;;20.41;58.28;101345.56;146608;570;46028;-73
2021/10/17 09:55:13;;;;;;;;;6.67;5.67;;;;;20.38;58.22;101349.00;146607;650;46012;-71
2021/10/17 09:57:47;;;;;;;;;5.67;5.67;;;;;20.35;59.23;101353.34;146602;650;46020;-81
2021/10/17 10:00:25;;;;;;;;;5.67;5.67;;;;;20.34;58.89;101347.16;146605;582;46017;-81
2021/10/17 10:02:59;;;;;;;;;8.67;7.67;;;;;20.38;57.38;101356.91;146607;597;46020;-81
2021/10/17 10:05:33;;;;;;;;;7.00;6.00;;;;;20.43;58.74;101351.72;146607;587;46012;-80
2021/10/17 10:08:10;;;;;;;;;5.67;5.33;;;;;20.50;59.38;101353.66;146604;662;47020;-80
2021/10/17 10:10:45;;;;;;;;;8.00;8.00;;;;;20.57;58.76;101347.69;146607;569;46911;-80
2021/10/17 10:13:20;;;;;;;;;7.67;6.67;;;;;20.65;58.76;101345.19;146606;669;47012;-81
2021/10/17 10:15:54;;;;;;;;;6.00;6.00;;;;;20.70;57.58;101344.41;146606;633;47012;-82
2021/10/17 10:18:31;;;;;;;;;8.00;8.00;;;;;20.85;57.33;101346.47;146608;641;45907;-81
2021/10/17 10:21:05;;;;;;;;;9.00;8.00;;;;;20.98;57.10;101339.69;146605;624;47012;-82
2021/10/17 10:23:40;;;;;;;;;8.67;7.67;;;;;21.12;56.32;101335.56;146607;674;46021;-82
2021/10/17 10:26:15;;;;;;;;;7.33;6.33;;;;;21.22;55.52;101329.56;146604;608;46016;-82
2021/10/17 10:28:49;;;;;;;;;8.33;7.00;;;;;21.28;55.18;101323.53;146607;602;45022;-79
2021/10/17 10:31:47;;;;;;;;;8.00;8.00;;;;;21.31;57.85;101327.94;146604;588;46017;-80
2021/10/17 10:34:59;;;;;;;;;9.33;8.00;;;;;20.36;56.57;101136.50;146603;602;47010;-82
2021/10/17 10:37:34;;;;;;;;;8.33;7.00;;;;;21.50;56.60;101311.59;146604;664;46017;-80
2021/10/17 10:40:12;;;;;;;;;11.00;10.00;;;;;21.60;57.69;101316.16;146608;590;46012;-81
2021/10/17 10:42:54;;;;;;;;;9.00;8.00;;;;;21.77;54.88;101313.75;146606;615;46016;-81
2021/10/17 10:45:39;;;;;;;;;7.67;7.67;;;;;21.89;56.77;101311.28;146610;625;45040;-81
2021/10/17 10:48:30;;;;;;;;;7.67;6.00;;;;;22.03;58.38;101308.88;146605;668;46016;-82
2021/10/17 10:51:06;;;;;;;;;7.00;6.00;;;;;22.16;56.05;101306.38;146605;585;46020;-82
2021/10/17 10:53:56;;;;;;;;;6.67;6.00;;;;;22.27;55.09;101310.06;146606;690;46034;-81
2021/10/17 10:56:49;;;;;;;;;6.00;6.00;;;;;22.31;55.25;101311.91;146608;626;46020;-81
2021/10/17 10:59:27;;;;;;;;;7.67;7.67;;;;;22.30;54.87;101300.41;146604;758;46016;-82
2021/10/17 11:02:26;;;;;;;;;8.00;5.67;;;;;20.85;58.20;101034.56;146605;569;46029;-80
2021/10/17 11:05:27;;;;;;;;;18.00;16.00;;;;;22.49;54.63;101304.19;146604;569;46016;-82
2021/10/17 11:08:16;;;;;;;;;19.00;17.67;;;;;22.51;53.92;101304.19;146606;660;47021;-79
2021/10/17 11:10:54;;;;;;;;;10.33;10.33;;;;;22.43;55.10;101306.78;146603;575;46016;-80
2021/10/17 11:13:48;;;;;;;;;6.67;5.67;;;;;22.36;55.77;101299.62;146609;673;46020;-81
2021/10/17 11:16:27;;;;;;;;;5.67;5.67;;;;;22.36;55.88;101294.34;146605;596;46016;-81
2021/10/17 11:19:03;;;;;;;;;7.00;7.00;;;;;22.42;55.33;101290.87;146611;563;46010;-81
2021/10/17 11:21:37;;;;;;;;;10.67;9.67;;;;;22.48;53.83;101290.94;146603;564;47018;-81
2021/10/17 11:24:12;;;;;;;;;10.00;8.00;;;;;22.44;51.97;101287.41;146605;579;46020;-82
2021/10/17 11:26:46;;;;;;;;;10.00;9.33;;;;;22.36;54.85;101281.13;146602;589;46016;-81
2021/10/17 11:29:20;;;;;;;;;9.33;8.33;;;;;22.33;54.89;101279.31;146603;572;46021;-81
2021/10/17 11:31:54;;;;;;;;;4.67;4.67;;;;;22.37;55.37;101285.56;146604;605;46016;-81
2021/10/17 11:34:28;;;;;;;;;8.67;6.67;;;;;22.40;53.67;101275.03;146608;578;46020;-80
2021/10/17 11:37:26;;;;;;;;;7.67;6.67;;;;;22.38;53.92;101276.75;146605;597;46016;-82
2021/10/17 11:40:06;;;;;;;;;7.00;7.00;;;;;22.28;51.75;101273.13;146608;646;46010;-80
2021/10/17 11:42:55;;;;;;;;;7.33;7.33;;;;;22.20;56.09;101273.87;146605;591;46016;-80
2021/10/17 11:45:32;;;;;;;;;6.33;5.67;;;;;21.28;56.52;101122.16;146609;582;47013;-81
2021/10/17 11:48:09;;;;;;;;;7.00;5.67;;;;;22.18;55.83;101272.97;146605;609;46911;-82
2021/10/17 11:50:46;;;;;;;;;5.33;5.33;;;;;22.18;56.14;101271.25;146607;594;46020;-81
2021/10/17 11:53:21;;;;;;;;;7.33;7.33;;;;;22.19;55.35;101266.84;146606;583;46017;-82
2021/10/17 11:55:56;;;;;;;;;6.67;6.67;;;;;22.20;55.72;101273.87;146606;604;46020;-79